Time;durP1;ratioP1;P1;durP2;ratioP2;P2;SDS_P1;SDS_P2;PMS_P1;PMS_P2;Temp;Humidity;BMP_temperature;BMP_pressure;BME280_temperature;BME280_humidity;BME280_pressure;Samples;Min_cycle;Max_cycle;Signal;HPM_P1;HPM_P2
2022/07/01 00:00:03;;;;;;;0.40;0.40;;;22.30;80.70;;;;;;5071269;28;20033;-65
2022/07/01 00:02:38;;;;;;;0.57;0.55;;;22.30;80.70;;;;;;5066944;28;20507;-65
2022/07/01 00:05:04;;;;;;;7.13;0.88;;;22.30;80.60;;;;;;5073512;28;20066;-65
2022/07/01 00:07:46;;;;;;;6.57;1.10;;;22.20;80.60;;;;;;5073155;28;20136;-66
2022/07/01 00:10:12;;;;;;;5.53;1.42;;;22.20;80.90;;;;;;5067984;28;20029;-65
2022/07/01 00:12:38;;;;;;;8.40;1.20;;;22.20;81.10;;;;;;5068014;28;20102;-65
2022/07/01 00:15:04;;;;;;;2.05;0.55;;;22.20;80.80;;;;;;5074424;28;20496;-66
2022/07/01 00:17:30;;;;;;;4.60;0.68;;;22.10;80.50;;;;;;5073613;28;20037;-65
2022/07/01 00:19:56;;;;;;;4.75;0.52;;;22.10;80.60;;;;;;5068223;28;20143;-65
2022/07/01 00:22:22;;;;;;;6.53;0.88;;;22.10;80.60;;;;;;5067780;28;20056;-66
2022/07/01 00:24:48;;;;;;;1.15;0.57;;;22.00;80.80;;;;;;5061836;28;20503;-65
2022/07/01 00:27:15;;;;;;;1.45;0.30;;;22.00;80.90;;;;;;5074088;28;20033;-65
2022/07/01 00:29:41;;;;;;;4.03;0.88;;;21.90;80.80;;;;;;5072733;28;20071;-66
2022/07/01 00:32:07;;;;;;;4.32;0.60;;;21.90;81.00;;;;;;5061794;28;20025;-65
2022/07/01 00:34:33;;;;;;;0.75;0.57;;;21.80;81.00;;;;;;5062632;28;20391;-65
2022/07/01 00:36:59;;;;;;;3.53;0.68;;;21.80;81.00;;;;;;5059170;28;20033;-66
2022/07/01 00:39:24;;;;;;;2.83;0.90;;;21.80;81.80;;;;;;5060658;28;20435;-66
2022/07/01 00:41:50;;;;;;;0.43;0.35;;;21.80;81.30;;;;;;5074867;28;20036;-66
2022/07/01 00:44:19;;;;;;;2.90;0.70;;;21.70;81.10;;;;;;5073267;28;20477;-66
2022/07/01 00:46:49;;;;;;;1.67;0.55;;;21.70;81.40;;;;;;5073552;28;20035;-66
2022/07/01 00:49:16;;;;;;;0.57;0.52;;;21.60;81.50;;;;;;5061460;28;20040;-66
2022/07/01 00:51:42;;;;;;;3.97;0.73;;;21.60;81.80;;;;;;5059420;28;20029;-66
2022/07/01 00:54:08;;;;;;;0.43;0.35;;;21.50;82.10;;;;;;5062177;28;20791;-66
2022/07/01 00:56:34;;;;;;;1.25;0.75;;;21.50;82.30;;;;;;5073036;28;20110;-66
2022/07/01 00:59:00;;;;;;;1.25;0.50;;;21.40;82.50;;;;;;5060160;28;20028;-66
2022/07/01 01:01:26;;;;;;;1.38;0.68;;;21.40;82.80;;;;;;5072961;28;20033;-66
2022/07/01 01:03:53;;;;;;;3.72;0.50;;;21.40;83.10;;;;;;5067527;28;20041;-66
2022/07/01 01:06:19;;;;;;;0.75;0.70;;;21.30;83.10;;;;;;5066087;28;20131;-66
2022/07/01 01:08:46;;;;;;;2.03;0.93;;;21.20;83.30;;;;;;5072357;28;20128;-66
2022/07/01 01:11:11;;;;;;;1.40;0.63;;;21.10;83.40;;;;;;5071896;28;20028;-66
2022/07/01 01:13:39;;;;;;;1.35;0.57;;;21.10;83.50;;;;;;5072887;28;20119;-66
2022/07/01 01:16:05;;;;;;;0.38;0.38;;;21.10;83.70;;;;;;5071509;28;20124;-66
2022/07/01 01:18:30;;;;;;;1.45;0.47;;;21.10;83.90;;;;;;5065237;28;20064;-66
2022/07/01 01:20:56;;;;;;;0.75;0.40;;;21.00;84.00;;;;;;5056652;28;20025;-66
2022/07/01 01:23:22;;;;;;;1.45;0.45;;;21.00;84.30;;;;;;5065773;28;20048;-66
2022/07/01 01:25:48;;;;;;;5.03;1.02;;;20.90;84.60;;;;;;5067691;28;20025;-66
2022/07/01 01:28:14;;;;;;;0.90;0.77;;;20.90;84.70;;;;;;5066751;28;20423;-66
2022/07/01 01:30:40;;;;;;;1.23;0.40;;;20.80;85.00;;;;;;5066705;28;20021;-66
2022/07/01 01:33:07;;;;;;;0.45;0.45;;;20.80;85.10;;;;;;5062161;28;20048;-66
2022/07/01 01:35:34;;;;;;;0.35;0.30;;;20.70;85.00;;;;;;5069446;28;20044;-66
2022/07/01 01:37:59;;;;;;;0.32;0.32;;;20.70;85.00;;;;;;5064534;28;20110;-66
2022/07/01 01:40:26;;;;;;;0.73;0.70;;;20.70;85.10;;;;;;5054579;28;20033;-66
2022/07/01 01:42:52;;;;;;;1.70;0.60;;;20.70;85.20;;;;;;5061577;28;20032;-66
2022/07/01 01:45:18;;;;;;;1.73;0.77;;;20.70;85.20;;;;;;5072110;28;20037;-66
2022/07/01 01:47:43;;;;;;;3.42;1.10;;;20.70;85.30;;;;;;5061105;28;20039;-66
2022/07/01 01:50:12;;;;;;;2.38;0.88;;;20.60;85.30;;;;;;5069093;28;20032;-66
2022/07/01 01:52:38;;;;;;;4.63;0.90;;;20.60;85.40;;;;;;5065234;28;20495;-66
2022/07/01 01:55:05;;;;;;;0.70;0.47;;;20.60;85.10;;;;;;5058842;28;20032;-66
2022/07/01 01:57:30;;;;;;;1.75;0.68;;;20.60;85.20;;;;;;5073103;28;20104;-66
2022/07/01 01:59:56;;;;;;;0.50;0.50;;;20.60;85.10;;;;;;5056255;28;20108;-66
2022/07/01 02:02:22;;;;;;;4.13;0.90;;;20.60;85.60;;;;;;5063950;28;20033;-66
2022/07/01 02:04:49;;;;;;;1.10;0.60;;;20.60;84.90;;;;;;5056408;28;20041;-67
2022/07/01 02:07:14;;;;;;;1.85;0.60;;;20.60;84.90;;;;;;5055840;28;20079;-66
2022/07/01 02:09:40;;;;;;;2.28;1.05;;;20.60;85.00;;;;;;5052710;28;20040;-67
2022/07/01 02:12:06;;;;;;;1.30;0.70;;;20.50;85.00;;;;;;5064954;28;20028;-66
2022/07/01 02:14:32;;;;;;;1.05;0.70;;;20.50;85.10;;;;;;5059548;28;20571;-66
2022/07/01 02:16:58;;;;;;;1.85;0.82;;;20.50;84.80;;;;;;5060143;28;20029;-66
2022/07/01 02:19:23;;;;;;;1.42;0.77;;;20.50;84.80;;;;;;5064971;28;20033;-66
2022/07/01 02:21:50;;;;;;;2.38;0.47;;;20.50;84.70;;;;;;5064544;28;20093;-66
2022/07/01 02:24:18;;;;;;;3.08;1.00;;;20.50;84.70;;;;;;5069914;28;20047;-66
2022/07/01 02:26:44;;;;;;;1.00;0.90;;;20.50;84.80;;;;;;5071325;28;20384;-66
2022/07/01 02:29:10;;;;;;;1.70;0.98;;;20.50;85.00;;;;;;5058615;28;20028;-67
2022/07/01 02:31:35;;;;;;;0.80;0.68;;;20.40;84.80;;;;;;5060181;28;20102;-66
2022/07/01 02:34:01;;;;;;;1.58;0.75;;;20.40;84.90;;;;;;5054222;28;20125;-66
2022/07/01 02:36:27;;;;;;;7.75;1.02;;;20.40;84.90;;;;;;5056583;28;20020;-67
2022/07/01 02:38:53;;;;;;;0.82;0.82;;;20.40;85.30;;;;;;5067793;28;20033;-67
2022/07/01 02:41:19;;;;;;;1.55;0.68;;;20.30;85.10;;;;;;5056727;28;20025;-66
2022/07/01 02:43:44;;;;;;;2.38;1.20;;;20.30;85.30;;;;;;5063730;28;20045;-67
2022/07/01 02:46:10;;;;;;;5.72;1.15;;;20.30;85.60;;;;;;5064875;28;20548;-66
2022/07/01 02:48:36;;;;;;;0.68;0.68;;;20.20;85.50;;;;;;5067759;28;20032;-66
2022/07/01 02:51:01;;;;;;;2.60;1.65;;;20.20;85.50;;;;;;5064409;28;20093;-66
2022/07/01 02:53:27;;;;;;;1.08;0.80;;;20.20;85.90;;;;;;5070660;28;20095;-66
2022/07/01 02:55:53;;;;;;;1.70;0.95;;;20.20;85.90;;;;;;5060201;28;20029;-67
2022/07/01 02:58:19;;;;;;;0.85;0.60;;;20.10;86.00;;;;;;5056340;28;20037;-66
2022/07/01 03:00:46;;;;;;;1.17;1.10;;;20.10;86.10;;;;;;5051980;28;20041;-66
2022/07/01 03:03:11;;;;;;;0.85;0.85;;;20.00;86.30;;;;;;5067090;28;20063;-66
2022/07/01 03:05:37;;;;;;;2.22;0.80;;;20.00;86.20;;;;;;5071805;28;20480;-66
2022/07/01 03:08:03;;;;;;;0.52;0.52;;;20.00;86.10;;;;;;5057687;28;20128;-66
2022/07/01 03:10:29;;;;;;;1.63;1.10;;;20.00;86.10;;;;;;5051551;28;20472;-67
2022/07/01 03:12:55;;;;;;;1.45;1.13;;;19.90;86.30;;;;;;5070553;28;20044;-67
2022/07/01 03:15:21;;;;;;;1.52;1.00;;;20.00;86.30;;;;;;5057997;28;20507;-67
2022/07/01 03:17:50;;;;;;;0.82;0.77;;;19.90;86.00;;;;;;5072014;28;20029;-66
2022/07/01 03:20:17;;;;;;;0.70;0.65;;;19.90;86.00;;;;;;5070270;28;20396;-67
2022/07/01 03:22:44;;;;;;;1.65;1.17;;;19.90;86.20;;;;;;5070057;28;20028;-66
2022/07/01 03:25:10;;;;;;;0.65;0.63;;;19.90;86.30;;;;;;5070192;28;20165;-66
2022/07/01 03:27:36;;;;;;;0.52;0.52;;;19.80;86.20;;;;;;5070835;28;20032;-66
2022/07/01 03:30:05;;;;;;;3.88;1.17;;;19.80;86.30;;;;;;5068706;28;20063;-66
2022/07/01 03:32:31;;;;;;;0.70;0.70;;;19.80;86.50;;;;;;5061633;28;20074;-66
2022/07/01 03:34:57;;;;;;;0.60;0.43;;;19.70;86.30;;;;;;5070227;28;20108;-66
2022/07/01 03:37:23;;;;;;;5.25;1.23;;;19.70;86.60;;;;;;5062667;28;20104;-67
2022/07/01 03:39:50;;;;;;;2.20;1.10;;;19.70;86.70;;;;;;5067363;28;20498;-67
2022/07/01 03:42:16;;;;;;;1.35;1.00;;;19.70;86.80;;;;;;5071446;28;20582;-66
2022/07/01 03:44:45;;;;;;;3.85;1.33;;;19.60;86.70;;;;;;5064722;28;20044;-66
2022/07/01 03:47:11;;;;;;;3.30;1.35;;;19.60;86.80;;;;;;5070560;28;20033;-66
2022/07/01 03:49:37;;;;;;;7.80;1.70;;;19.60;86.90;;;;;;5068352;28;20040;-66
2022/07/01 03:52:03;;;;;;;1.85;1.25;;;19.60;86.90;;;;;;5071036;28;20033;-66
2022/07/01 03:54:30;;;;;;;2.75;1.00;;;19.60;86.90;;;;;;5069907;28;20028;-66
2022/07/01 03:57:01;;;;;;;3.25;1.20;;;19.60;86.70;;;;;;5068199;28;20033;-66
2022/07/01 03:59:28;;;;;;;2.72;1.27;;;19.60;87.00;;;;;;5070552;28;20028;-66
2022/07/01 04:01:58;;;;;;;0.55;0.45;;;19.50;86.70;;;;;;5070713;28;20103;-66
2022/07/01 04:04:25;;;;;;;3.45;1.73;;;19.50;86.70;;;;;;5067722;28;20448;-66
2022/07/01 04:06:52;;;;;;;1.67;1.40;;;19.50;87.20;;;;;;5070525;28;20473;-66
2022/07/01 04:09:18;;;;;;;1.98;1.38;;;19.50;87.10;;;;;;5070035;28;20465;-66
2022/07/01 04:11:45;;;;;;;4.97;1.30;;;19.40;87.30;;;;;;5068773;28;20031;-66
2022/07/01 04:14:12;;;;;;;2.83;1.33;;;19.50;87.20;;;;;;5065401;28;20083;-66
2022/07/01 04:16:37;;;;;;;1.77;1.23;;;19.50;87.20;;;;;;5055192;28;20033;-66
2022/07/01 04:19:04;;;;;;;3.20;1.45;;;19.50;87.20;;;;;;5055447;28;20028;-66
2022/07/01 04:24:17;;;;;;;1.75;1.27;;;19.40;87.30;;;;;;5074286;28;20033;-66
2022/07/01 04:26:43;;;;;;;1.10;0.90;;;19.40;87.40;;;;;;5073983;28;20034;-66
2022/07/01 04:29:10;;;;;;;3.22;1.15;;;19.40;87.50;;;;;;5074677;28;20039;-67
2022/07/01 04:31:39;;;;;;;0.85;0.60;;;19.30;87.60;;;;;;5073342;28;20032;-66
2022/07/01 04:34:07;;;;;;;1.95;1.05;;;19.30;87.70;;;;;;5074622;28;20029;-66
2022/07/01 04:36:34;;;;;;;3.38;1.42;;;19.40;87.90;;;;;;5067502;28;20032;-66
2022/07/01 04:39:00;;;;;;;1.23;0.85;;;19.30;88.00;;;;;;5067326;28;20503;-66
2022/07/01 04:44:13;;;;;;;0.82;0.80;;;19.30;88.10;;;;;;5067370;28;20392;-66
2022/07/01 04:46:38;;;;;;;2.75;1.35;;;19.20;88.00;;;;;;5061842;28;20071;-66
2022/07/01 04:49:04;;;;;;;5.78;1.80;;;19.20;87.90;;;;;;5064619;28;20064;-66
2022/07/01 04:51:30;;;;;;;3.35;2.10;;;19.30;88.10;;;;;;5054895;28;20060;-66
2022/07/01 04:53:56;;;;;;;2.63;1.67;;;19.30;88.10;;;;;;5067437;28;20146;-66
2022/07/01 04:56:22;;;;;;;10.60;1.92;;;19.30;88.00;;;;;;5068835;28;20044;-66
2022/07/01 04:58:48;;;;;;;1.58;1.15;;;19.20;87.90;;;;;;5054685;28;20037;-65
2022/07/01 05:01:14;;;;;;;1.73;1.60;;;19.30;87.80;;;;;;5055142;28;20025;-66
2022/07/01 05:03:40;;;;;;;4.18;1.02;;;19.30;88.10;;;;;;5067037;28;20052;-66
2022/07/01 05:06:06;;;;;;;1.08;0.73;;;19.30;87.80;;;;;;5062362;28;20097;-66
2022/07/01 05:08:31;;;;;;;4.25;1.67;;;19.30;87.70;;;;;;5064188;28;20111;-66
2022/07/01 05:10:57;;;;;;;7.25;2.22;;;19.20;88.60;;;;;;5066848;28;20120;-66
2022/07/01 05:13:23;;;;;;;0.55;0.55;;;19.30;88.10;;;;;;5068609;28;20036;-66
2022/07/01 05:15:49;;;;;;;4.78;1.85;;;19.30;88.10;;;;;;5072343;28;20081;-65
2022/07/01 05:23:43;;;;;;;1.77;1.27;;;19.20;88.30;;;;;;5065079;28;20101;-66
2022/07/01 05:26:15;;;;;;;4.05;1.50;;;19.20;88.50;;;;;;5069398;28;20024;-65
2022/07/01 05:28:41;;;;;;;4.53;1.65;;;19.10;88.70;;;;;;5070773;28;20415;-67
2022/07/01 05:31:07;;;;;;;4.45;1.02;;;19.10;88.70;;;;;;5069206;28;20039;-65
2022/07/01 05:33:32;;;;;;;4.32;1.98;;;19.10;88.80;;;;;;5067764;28;20032;-66
2022/07/01 05:35:58;;;;;;;3.42;1.67;;;19.10;89.00;;;;;;5068704;28;20124;-67
2022/07/01 05:38:24;;;;;;;2.17;1.42;;;19.00;88.80;;;;;;5069511;28;20421;-67
2022/07/01 05:40:52;;;;;;;3.00;1.75;;;19.10;88.80;;;;;;5067402;28;20538;-67
2022/07/01 05:43:18;;;;;;;4.60;2.00;;;19.10;88.90;;;;;;5068747;28;20093;-67
2022/07/01 05:45:44;;;;;;;0.77;0.77;;;19.10;89.10;;;;;;5071590;28;20032;-68
2022/07/01 05:48:09;;;;;;;6.20;2.25;;;19.10;88.80;;;;;;5069835;28;20032;-67
2022/07/01 05:50:35;;;;;;;3.30;1.75;;;19.10;89.00;;;;;;5068451;28;20032;-66
2022/07/01 05:53:01;;;;;;;2.40;1.48;;;19.10;89.60;;;;;;5069526;28;20503;-66
2022/07/01 05:55:27;;;;;;;3.35;2.17;;;19.10;88.70;;;;;;5067844;28;20024;-67
2022/07/01 05:57:53;;;;;;;1.48;1.15;;;19.20;89.00;;;;;;5072290;28;20426;-67
2022/07/01 06:00:19;;;;;;;5.97;1.92;;;19.10;88.80;;;;;;5070392;28;20090;-67
2022/07/01 06:02:44;;;;;;;2.80;1.70;;;19.20;88.90;;;;;;5069632;28;20119;-67
2022/07/01 06:05:13;;;;;;;2.88;1.92;;;19.20;88.90;;;;;;5072217;28;20120;-67
2022/07/01 06:07:40;;;;;;;4.70;1.77;;;19.20;89.00;;;;;;5065888;28;20064;-67
2022/07/01 06:10:07;;;;;;;2.53;1.65;;;19.20;89.10;;;;;;5063291;28;20044;-67
2022/07/01 06:12:33;;;;;;;5.80;3.17;;;19.20;89.00;;;;;;5065600;28;20028;-68
2022/07/01 06:14:59;;;;;;;7.93;2.13;;;19.20;89.40;;;;;;5066649;28;20820;-67
2022/07/01 06:17:24;;;;;;;8.55;2.60;;;19.20;89.40;;;;;;5068325;28;20024;-68
2022/07/01 06:19:50;;;;;;;4.18;2.38;;;19.20;89.40;;;;;;5067982;28;20031;-67
2022/07/01 06:22:19;;;;;;;7.75;3.33;;;19.20;89.70;;;;;;5067832;28;20040;-67
2022/07/01 06:24:44;;;;;;;5.93;2.63;;;19.20;90.00;;;;;;5069858;28;20045;-67
2022/07/01 06:27:11;;;;;;;5.82;3.75;;;19.10;89.80;;;;;;5071889;28;20035;-67
2022/07/01 06:29:37;;;;;;;4.28;3.13;;;19.20;90.00;;;;;;5059415;28;20036;-67
2022/07/01 06:32:04;;;;;;;3.00;1.83;;;19.20;89.90;;;;;;5065095;28;20021;-68
2022/07/01 06:34:31;;;;;;;7.50;3.08;;;19.20;90.00;;;;;;5060623;28;20091;-68
2022/07/01 06:37:00;;;;;;;9.75;4.93;;;19.20;90.00;;;;;;5061609;28;20029;-68
2022/07/01 06:39:26;;;;;;;13.48;5.30;;;19.20;90.10;;;;;;5068081;28;20040;-68
2022/07/01 06:41:52;;;;;;;13.93;4.68;;;19.20;90.20;;;;;;5057701;28;20032;-69
2022/07/01 06:44:18;;;;;;;9.45;4.80;;;19.20;90.20;;;;;;5067484;28;20120;-68
2022/07/01 06:46:44;;;;;;;9.15;3.95;;;19.20;90.20;;;;;;5067064;28;20119;-68
2022/07/01 06:49:10;;;;;;;7.50;3.10;;;19.20;90.20;;;;;;5061435;28;20447;-68
2022/07/01 06:51:36;;;;;;;8.65;3.35;;;19.20;90.10;;;;;;5063006;28;20025;-68
2022/07/01 06:54:02;;;;;;;7.03;4.03;;;19.20;90.10;;;;;;5063639;28;20032;-68
2022/07/01 06:56:28;;;;;;;6.20;3.25;;;19.30;90.30;;;;;;5070240;28;20064;-68
2022/07/01 06:58:54;;;;;;;4.45;2.53;;;19.20;90.30;;;;;;5070540;28;20028;-68
2022/07/01 07:01:20;;;;;;;3.08;2.03;;;19.30;90.40;;;;;;5058222;28;20028;-68
2022/07/01 07:03:45;;;;;;;12.13;5.18;;;19.30;90.50;;;;;;5070865;28;20455;-68
2022/07/01 07:06:11;;;;;;;9.40;3.88;;;19.20;90.50;;;;;;5069947;28;20049;-68
2022/07/01 07:08:38;;;;;;;8.32;5.03;;;19.30;90.50;;;;;;5070978;28;20151;-68
2022/07/01 07:11:04;;;;;;;11.13;5.57;;;19.30;90.50;;;;;;5070945;28;20021;-69
2022/07/01 07:13:30;;;;;;;4.80;3.17;;;19.30;90.60;;;;;;5071951;28;20025;-68
2022/07/01 07:15:56;;;;;;;5.38;2.30;;;19.30;90.60;;;;;;5062834;28;20461;-68
2022/07/01 07:18:22;;;;;;;7.82;4.07;;;19.30;90.60;;;;;;5063774;28;20028;-68
2022/07/01 07:20:48;;;;;;;9.18;4.07;;;19.40;90.60;;;;;;5071169;28;20028;-68
2022/07/01 07:23:14;;;;;;;2.05;1.63;;;19.30;90.70;;;;;;5070126;28;20020;-68
2022/07/01 07:25:40;;;;;;;10.32;3.88;;;19.40;90.70;;;;;;5071300;28;20036;-68
2022/07/01 07:28:05;;;;;;;8.27;3.47;;;19.40;90.80;;;;;;5070642;28;20472;-68
2022/07/01 07:30:31;;;;;;;11.30;3.55;;;19.40;90.90;;;;;;5058163;28;20060;-68
2022/07/01 07:32:57;;;;;;;4.85;2.90;;;19.40;90.80;;;;;;5071076;28;20035;-68
2022/07/01 07:35:25;;;;;;;6.57;2.67;;;19.40;90.80;;;;;;5071280;28;20029;-68
2022/07/01 07:37:51;;;;;;;3.72;2.78;;;19.40;90.70;;;;;;5071328;28;20040;-68
2022/07/01 07:40:19;;;;;;;6.75;2.58;;;19.40;90.70;;;;;;5052191;28;20028;-68
2022/07/01 07:42:47;;;;;;;5.65;2.80;;;19.40;90.60;;;;;;5064714;28;20484;-68
2022/07/01 07:45:16;;;;;;;11.85;4.18;;;19.50;90.70;;;;;;5051982;28;20044;-68
2022/07/01 07:47:48;;;;;;;7.63;3.88;;;19.50;90.70;;;;;;5065384;28;20028;-68
2022/07/01 07:50:14;;;;;;;4.47;2.03;;;19.50;90.70;;;;;;5061177;28;20028;-68
2022/07/01 07:52:41;;;;;;;6.25;3.28;;;19.50;90.60;;;;;;5058597;28;20109;-68
2022/07/01 07:55:09;;;;;;;6.53;3.30;;;19.60;90.70;;;;;;5069617;28;20090;-68
2022/07/01 07:57:39;;;;;;;14.40;5.45;;;19.60;90.70;;;;;;5073349;28;20404;-68
2022/07/01 08:00:10;;;;;;;16.55;4.70;;;19.60;90.70;;;;;;5075505;28;20024;-68
2022/07/01 08:02:40;;;;;;;4.10;2.75;;;19.60;90.70;;;;;;5073302;28;20605;-68
2022/07/01 08:05:08;;;;;;;11.32;5.07;;;19.70;90.60;;;;;;5075330;28;20067;-68
2022/07/01 08:07:36;;;;;;;3.17;1.80;;;19.70;90.60;;;;;;5058070;28;20041;-68
2022/07/01 08:10:07;;;;;;;10.13;3.28;;;19.70;90.50;;;;;;5066149;28;20047;-67
2022/07/01 08:12:33;;;;;;;4.07;2.53;;;19.70;90.50;;;;;;5067241;28;20033;-66
2022/07/01 08:14:59;;;;;;;8.63;4.30;;;19.80;90.60;;;;;;5067365;28;20036;-66
2022/07/01 08:17:25;;;;;;;7.60;3.65;;;19.80;90.60;;;;;;5071961;28;20480;-66
2022/07/01 08:19:53;;;;;;;10.32;5.63;;;19.80;90.40;;;;;;5071512;28;20165;-66
2022/07/01 08:22:19;;;;;;;9.48;5.43;;;19.90;90.80;;;;;;5068178;28;20476;-66
2022/07/01 08:24:45;;;;;;;8.07;3.15;;;19.80;90.40;;;;;;5069619;28;20139;-66
2022/07/01 08:27:12;;;;;;;8.52;4.65;;;19.90;90.40;;;;;;5072239;28;20028;-66
2022/07/01 08:29:38;;;;;;;11.43;5.47;;;19.90;90.40;;;;;;5066544;28;20032;-66
2022/07/01 08:32:05;;;;;;;5.82;3.42;;;20.00;90.50;;;;;;5071938;28;20423;-66
2022/07/01 08:34:31;;;;;;;6.75;3.80;;;20.00;90.40;;;;;;5071044;28;20094;-65
2022/07/01 08:36:56;;;;;;;5.30;3.30;;;20.00;90.40;;;;;;5068816;28;20028;-66
2022/07/01 08:39:22;;;;;;;3.40;2.10;;;20.00;90.40;;;;;;5071087;28;20095;-66
2022/07/01 08:41:48;;;;;;;18.27;2.53;;;20.10;90.60;;;;;;5063842;28;20021;-66
2022/07/01 08:44:14;;;;;;;3.60;2.53;;;20.10;90.30;;;;;;5069457;28;20435;-66
2022/07/01 08:46:40;;;;;;;8.77;3.70;;;20.10;90.20;;;;;;5067197;28;20047;-66
2022/07/01 08:49:06;;;;;;;9.90;2.22;;;20.20;90.20;;;;;;5069903;28;20083;-68
2022/07/01 08:51:32;;;;;;;7.50;4.25;;;20.20;90.20;;;;;;5067657;28;20033;-67
2022/07/01 08:53:58;;;;;;;9.48;4.07;;;20.20;90.10;;;;;;5069482;28;20415;-65
2022/07/01 08:56:42;;;;;;;8.18;4.65;;;20.20;90.10;;;;;;5069507;28;20059;-66
2022/07/01 08:59:12;;;;;;;8.23;2.80;;;20.30;90.10;;;;;;5071436;28;20032;-66
2022/07/01 09:01:38;;;;;;;10.95;4.07;;;20.30;90.00;;;;;;5071818;28;20086;-67
2022/07/01 09:04:18;;;;;;;12.30;5.88;;;20.30;90.00;;;;;;5069634;28;20075;-67
2022/07/01 09:06:45;;;;;;;10.30;3.90;;;20.40;90.30;;;;;;5072485;28;20052;-66
2022/07/01 09:09:15;;;;;;;4.50;2.50;;;20.40;89.90;;;;;;5069889;28;20028;-65
2022/07/01 09:11:55;;;;;;;9.63;2.65;;;20.40;89.80;;;;;;5072380;28;20530;-65
2022/07/01 09:14:27;;;;;;;5.18;2.25;;;20.50;89.70;;;;;;5067231;28;20385;-64
2022/07/01 09:16:58;;;;;;;7.75;3.85;;;20.50;89.60;;;;;;5068692;28;20027;-65
2022/07/01 09:19:25;;;;;;;5.53;3.10;;;20.50;89.70;;;;;;5067985;28;20028;-65
2022/07/01 09:21:56;;;;;;;5.25;3.50;;;20.50;89.70;;;;;;5069441;28;20384;-65
2022/07/01 09:24:36;;;;;;;3.35;2.35;;;20.60;89.80;;;;;;5070126;28;20483;-67
2022/07/01 09:27:06;;;;;;;3.75;2.22;;;20.60;89.30;;;;;;5071935;28;20028;-67
2022/07/01 09:29:38;;;;;;;8.40;3.13;;;20.60;89.10;;;;;;5071430;28;20028;-69
2022/07/01 09:32:06;;;;;;;8.50;2.15;;;20.60;89.00;;;;;;5069482;28;20037;-67
2022/07/01 09:34:34;;;;;;;2.45;2.03;;;20.60;89.00;;;;;;5069375;28;20060;-67
2022/07/01 09:36:59;;;;;;;1.50;1.17;;;20.60;89.00;;;;;;5072477;28;20442;-68
2022/07/01 09:39:25;;;;;;;1.85;1.25;;;20.60;88.90;;;;;;5060515;28;20071;-68
2022/07/01 09:41:57;;;;;;;3.95;1.73;;;20.70;88.50;;;;;;5058344;28;20025;-68
2022/07/01 09:44:23;;;;;;;6.07;1.58;;;20.70;88.30;;;;;;5063501;28;20051;-68
2022/07/01 09:46:55;;;;;;;1.65;1.10;;;20.70;88.40;;;;;;5070161;28;20025;-68
2022/07/01 09:49:21;;;;;;;2.85;1.40;;;20.70;88.00;;;;;;5067888;28;20052;-68
2022/07/01 09:51:49;;;;;;;2.22;1.35;;;20.80;87.70;;;;;;5071309;28;20028;-68
2022/07/01 09:54:15;;;;;;;2.75;1.60;;;20.80;87.50;;;;;;5070942;28;20464;-67
2022/07/01 09:56:41;;;;;;;5.75;1.75;;;20.80;87.30;;;;;;5072529;28;20036;-67
2022/07/01 09:59:06;;;;;;;3.72;1.33;;;20.90;87.10;;;;;;5064802;28;20036;-67
2022/07/01 10:01:32;;;;;;;3.80;1.63;;;20.90;87.00;;;;;;5068670;28;20411;-67
2022/07/01 10:04:01;;;;;;;3.58;2.28;;;20.90;86.70;;;;;;5065572;28;20040;-69
2022/07/01 10:06:58;;;;;;;3.45;2.08;;;21.00;86.70;;;;;;5064138;28;20063;-68
2022/07/01 10:09:44;;;;;;;5.50;1.77;;;21.00;86.80;;;;;;5053612;28;20029;-67
2022/07/01 10:12:09;;;;;;;1.20;1.10;;;21.00;86.70;;;;;;5069719;28;20024;-67
2022/07/01 10:14:38;;;;;;;4.47;1.90;;;21.10;86.70;;;;;;5072328;28;20094;-67
2022/07/01 10:17:06;;;;;;;4.05;1.95;;;21.10;86.20;;;;;;5067428;28;20482;-65
2022/07/01 10:19:33;;;;;;;6.28;2.95;;;21.10;86.10;;;;;;5069872;28;20097;-65
2022/07/01 10:22:29;;;;;;;1.92;1.52;;;21.20;86.20;;;;;;5071245;28;20025;-65
2022/07/01 10:24:56;;;;;;;7.40;1.90;;;21.20;86.30;;;;;;5064165;28;20052;-65
2022/07/01 10:27:24;;;;;;;4.25;1.40;;;21.30;85.90;;;;;;5067445;28;20074;-65
2022/07/01 10:30:13;;;;;;;3.05;1.92;;;21.30;85.80;;;;;;5067837;28;20111;-65
2022/07/01 10:32:51;;;;;;;0.88;0.82;;;21.30;85.50;;;;;;5059470;28;20028;-65
2022/07/01 10:35:18;;;;;;;1.45;0.73;;;21.30;85.20;;;;;;5067400;28;20055;-65
2022/07/01 10:38:02;;;;;;;1.42;1.33;;;21.40;84.90;;;;;;5070455;28;20060;-65
2022/07/01 10:40:46;;;;;;;0.95;0.65;;;21.40;84.50;;;;;;5068649;28;20078;-65
2022/07/01 10:43:16;;;;;;;2.53;1.30;;;21.40;84.40;;;;;;5067792;28;20020;-65
2022/07/01 10:45:45;;;;;;;2.08;1.00;;;21.40;84.80;;;;;;5068094;28;20544;-65
2022/07/01 10:48:23;;;;;;;2.20;1.17;;;21.50;84.00;;;;;;5069470;28;20063;-65
2022/07/01 10:50:50;;;;;;;3.10;1.75;;;21.50;83.60;;;;;;5069154;28;20036;-65
2022/07/01 10:53:16;;;;;;;2.88;1.40;;;21.60;83.60;;;;;;5066662;28;20021;-65
2022/07/01 10:55:52;;;;;;;4.57;2.08;;;21.60;83.50;;;;;;5068680;28;20036;-65
2022/07/01 10:58:34;;;;;;;4.25;1.45;;;21.70;83.60;;;;;;5067734;28;20162;-65
2022/07/01 11:01:00;;;;;;;4.90;1.90;;;21.70;83.60;;;;;;5069556;28;20431;-65
2022/07/01 11:03:26;;;;;;;3.60;1.80;;;21.70;83.30;;;;;;5068136;28;20060;-65
2022/07/01 11:05:54;;;;;;;5.75;1.40;;;21.80;83.60;;;;;;5066590;28;20084;-65
2022/07/01 11:08:21;;;;;;;2.38;1.25;;;21.80;83.40;;;;;;5069065;28;20021;-65
2022/07/01 11:10:50;;;;;;;3.33;0.80;;;21.90;83.30;;;;;;5067912;28;20411;-65
2022/07/01 11:13:16;;;;;;;1.35;0.80;;;22.00;82.90;;;;;;5069614;28;20067;-65
2022/07/01 11:15:46;;;;;;;2.95;1.48;;;22.00;82.10;;;;;;5069457;28;20033;-66
2022/07/01 11:18:13;;;;;;;4.15;1.42;;;22.00;82.30;;;;;;5069971;28;20032;-65
2022/07/01 11:20:39;;;;;;;3.30;1.55;;;22.00;82.50;;;;;;5069628;28;20028;-65
2022/07/01 11:23:05;;;;;;;4.13;2.03;;;22.00;82.30;;;;;;5068447;28;20031;-67
2022/07/01 11:25:31;;;;;;;1.63;1.23;;;22.10;81.70;;;;;;5068545;28;20087;-67
2022/07/01 11:27:57;;;;;;;1.90;0.90;;;22.10;81.70;;;;;;5069670;28;20025;-68
2022/07/01 11:30:24;;;;;;;3.50;1.52;;;22.10;82.30;;;;;;5068834;28;20020;-67
2022/07/01 11:32:55;;;;;;;5.97;1.88;;;22.10;82.00;;;;;;5074767;28;20103;-67
2022/07/01 11:41:03;;;;;;;2.13;0.93;;;22.10;82.30;;;;;;5074437;28;20187;-65
2022/07/01 11:43:33;;;;;;;6.57;1.23;;;22.00;82.30;;;;;;5076620;28;20098;-66
2022/07/01 11:46:04;;;;;;;0.38;0.38;;;22.00;82.30;;;;;;5073813;28;20028;-66
2022/07/01 11:48:39;;;;;;;4.00;0.88;;;22.00;82.70;;;;;;5072048;28;20029;-65
2022/07/01 11:51:16;;;;;;;3.10;1.30;;;22.00;82.40;;;;;;5073748;28;20035;-66
2022/07/01 11:53:44;;;;;;;1.17;0.68;;;22.00;82.30;;;;;;5073415;28;20039;-65
2022/07/01 11:56:11;;;;;;;1.02;0.63;;;22.10;82.50;;;;;;5075447;28;20422;-65
2022/07/01 11:58:44;;;;;;;1.85;0.68;;;22.10;82.30;;;;;;5075827;28;20493;-67
2022/07/01 12:01:10;;;;;;;2.78;0.88;;;22.00;81.90;;;;;;5069659;28;20037;-66
2022/07/01 12:03:37;;;;;;;2.30;1.00;;;22.10;81.90;;;;;;5075597;28;20065;-65
2022/07/01 12:06:04;;;;;;;0.98;0.65;;;22.10;81.60;;;;;;5073116;28;20095;-66
2022/07/01 12:08:32;;;;;;;0.57;0.57;;;22.10;81.40;;;;;;5074560;28;20040;-66
2022/07/01 12:11:00;;;;;;;3.00;0.50;;;22.10;81.30;;;;;;5075908;28;20104;-65
2022/07/01 12:13:26;;;;;;;1.33;0.65;;;22.10;80.80;;;;;;5075332;28;20120;-68
2022/07/01 12:15:52;;;;;;;1.52;0.68;;;22.10;80.20;;;;;;5069927;28;20104;-68
2022/07/01 12:18:18;;;;;;;4.43;0.90;;;22.10;79.70;;;;;;5062985;28;20024;-67
2022/07/01 12:20:54;;;;;;;1.42;1.10;;;22.10;79.60;;;;;;5077855;28;20063;-68
2022/07/01 12:23:20;;;;;;;0.35;0.35;;;22.10;80.20;;;;;;5076106;28;20067;-68
2022/07/01 12:25:48;;;;;;;0.80;0.63;;;22.10;80.30;;;;;;5068413;28;20053;-68
2022/07/01 12:28:39;;;;;;;4.50;0.60;;;22.10;80.50;;;;;;5070557;28;20068;-68
2022/07/01 12:31:09;;;;;;;3.95;0.93;;;22.20;80.30;;;;;;5069491;28;20395;-67
2022/07/01 12:33:39;;;;;;;4.03;1.15;;;22.20;80.30;;;;;;5076846;28;20038;-66
2022/07/01 12:36:07;;;;;;;1.85;0.80;;;22.20;80.50;;;;;;5075465;28;20020;-67
2022/07/01 12:38:33;;;;;;;0.70;0.63;;;22.30;80.90;;;;;;5075016;28;20024;-66
2022/07/01 12:40:59;;;;;;;3.25;0.85;;;22.30;80.50;;;;;;5070992;28;20041;-66
2022/07/01 12:43:31;;;;;;;3.95;1.50;;;22.30;80.30;;;;;;5070116;28;20040;-65
2022/07/01 12:46:00;;;;;;;3.60;1.38;;;22.40;81.10;;;;;;5069480;28;20044;-67
2022/07/01 12:48:26;;;;;;;0.98;0.70;;;22.50;81.10;;;;;;5072445;28;20542;-67
2022/07/01 12:50:54;;;;;;;2.03;0.80;;;22.50;80.90;;;;;;5072176;28;20029;-65
2022/07/01 12:53:28;;;;;;;4.10;0.80;;;22.50;80.60;;;;;;5068338;28;20112;-65
2022/07/01 12:55:57;;;;;;;2.85;0.95;;;22.60;80.70;;;;;;5070111;28;20028;-66
2022/07/01 12:58:25;;;;;;;3.42;0.95;;;22.60;80.50;;;;;;5071609;28;20025;-65
2022/07/01 13:00:53;;;;;;;2.20;0.88;;;22.60;80.60;;;;;;5070683;28;20036;-66
2022/07/01 13:03:22;;;;;;;2.03;1.17;;;22.60;80.40;;;;;;5072214;28;20114;-65